Time;durP1;ratioP1;P1;durP2;ratioP2;P2;SDS_P1;SDS_P2;PMS_P1;PMS_P2;Temp;Humidity;BMP_temperature;BMP_pressure;BME280_temperature;BME280_humidity;BME280_pressure;Samples;Min_cycle;Max_cycle;Signal;HPM_P1;HPM_P2
2022/11/11 00:01:23;;;;;;;20.52;7.60;;;11.10;99.90;;;;;;6369615;22;20079;-85
2022/11/11 00:03:55;;;;;;;20.67;9.35;;;10.70;99.90;;;;;;6370676;22;20018;-85
2022/11/11 00:06:29;;;;;;;31.63;15.45;;;10.10;99.90;;;;;;6341945;22;20011;-85
2022/11/11 00:09:04;;;;;;;19.48;7.18;;;9.20;99.90;;;;;;6341468;22;20123;-84
2022/11/11 00:11:44;;;;;;;19.80;8.70;;;10.30;99.90;;;;;;6370516;22;20030;-84
2022/11/11 00:14:22;;;;;;;14.07;7.10;;;9.00;99.90;;;;;;6368014;22;20029;-84
2022/11/11 00:25:57;;;;;;;;;;;10.40;99.90;;;;;;6371080;22;20018;-85
2022/11/11 00:29:24;;;;;;;;;;;;;;;;;;;;;
2022/11/11 00:32:47;;;;;;;23.00;9.57;;;9.70;99.90;;;;;;6340998;22;20018;-85
2022/11/11 00:38:48;;;;;;;19.80;8.35;;;9.70;99.90;;;;;;6369510;22;20025;-84
2022/11/11 00:41:24;;;;;;;22.92;10.52;;;9.70;99.90;;;;;;6342113;22;20018;-85
2022/11/11 00:43:52;;;;;;;18.40;8.95;;;9.30;99.90;;;;;;6369313;22;20010;-85
2022/11/11 00:52:50;;;;;;;17.98;7.88;;;10.50;99.90;;;;;;6370604;22;20019;-85
2022/11/11 00:55:19;;;;;;;16.17;8.10;;;9.20;99.90;;;;;;6342088;22;20048;-85
2022/11/11 00:58:00;;;;;;;21.83;9.82;;;9.50;99.90;;;;;;6369537;22;20014;-85
2022/11/11 01:00:25;;;;;;;18.98;8.75;;;10.50;99.90;;;;;;6341579;22;20018;-85
2022/11/11 01:02:51;;;;;;;16.85;8.27;;;9.60;99.90;;;;;;6342123;22;20021;-86
2022/11/11 01:05:17;;;;;;;17.83;9.50;;;10.70;99.90;;;;;;6341312;22;20069;-85
2022/11/11 01:07:42;;;;;;;21.55;9.95;;;10.50;99.90;;;;;;6370016;22;20026;-85
2022/11/11 01:13:46;;;;;;;18.73;8.18;;;9.20;99.90;;;;;;6342109;22;20018;-85
2022/11/11 01:16:24;;;;;;;21.15;8.70;;;9.40;99.90;;;;;;6342175;22;20046;-86
2022/11/11 01:18:52;;;;;;;17.38;8.85;;;10.70;99.90;;;;;;6369481;22;20018;-85
2022/11/11 01:21:22;;;;;;;18.47;8.47;;;10.00;99.90;;;;;;6342174;22;20072;-85
2022/11/11 01:23:50;;;;;;;24.15;10.57;;;10.40;99.90;;;;;;6343854;22;20010;-85
2022/11/11 01:26:27;;;;;;;22.05;9.38;;;8.20;99.90;;;;;;6340998;22;20038;-85
2022/11/11 01:28:56;;;;;;;20.40;9.65;;;9.10;99.90;;;;;;6341828;22;20091;-86
2022/11/11 01:31:25;;;;;;;21.15;9.93;;;10.00;99.90;;;;;;6345524;22;20014;-85
2022/11/11 01:33:58;;;;;;;21.67;9.43;;;9.70;99.90;;;;;;6370097;22;20076;-85
2022/11/11 01:44:00;;;;;;;17.90;9.07;;;9.10;99.90;;;;;;6369405;22;20020;-85
2022/11/11 01:46:51;;;;;;;19.42;9.68;;;9.00;99.90;;;;;;6287338;22;20019;-85
2022/11/11 01:49:42;;;;;;;19.70;9.27;;;8.90;99.90;;;;;;6342203;22;20021;-85
2022/11/11 01:56:04;;;;;;;18.77;9.90;;;9.00;99.90;;;;;;6371611;22;20059;-85
2022/11/11 01:59:10;;;;;;;17.80;9.57;;;9.10;99.90;;;;;;6381416;22;20018;-85
2022/11/11 02:01:55;;;;;;;21.55;9.63;;;9.10;99.90;;;;;;6366890;22;20053;-85
2022/11/11 02:07:29;;;;;;;23.42;10.68;;;9.90;99.90;;;;;;6343789;22;20018;-85
2022/11/11 02:09:57;;;;;;;22.08;11.27;;;9.70;99.90;;;;;;6341929;22;20060;-85
2022/11/11 02:19:06;;;;;;;20.58;10.30;;;8.40;99.90;;;;;;6318572;22;20159;-85
2022/11/11 02:24:45;;;;;;;21.20;12.02;;;9.90;99.90;;;;;;6343232;22;20022;-85
2022/11/11 02:27:14;;;;;;;23.48;13.02;;;9.00;99.90;;;;;;6342755;22;20101;-85
2022/11/11 02:29:41;;;;;;;24.13;11.57;;;8.70;99.90;;;;;;6342585;22;20041;-85
2022/11/11 02:32:10;;;;;;;25.13;12.30;;;9.50;99.90;;;;;;6343062;22;20093;-85
2022/11/11 02:34:35;;;;;;;25.00;12.25;;;8.90;99.90;;;;;;6342317;22;20541;-85
2022/11/11 02:37:17;;;;;;;25.15;13.88;;;9.60;99.90;;;;;;6371672;22;20093;-85
2022/11/11 02:39:52;;;;;;;25.23;12.70;;;9.40;99.90;;;;;;6343423;22;20018;-85
2022/11/11 02:42:22;;;;;;;24.23;13.53;;;8.90;99.90;;;;;;6341700;22;20094;-86
2022/11/11 02:44:57;;;;;;;28.55;12.80;;;9.00;99.90;;;;;;6343193;22;20337;-86
2022/11/11 02:47:23;;;;;;;23.35;13.07;;;9.90;99.90;;;;;;6370864;22;20013;-85
2022/11/11 02:50:01;;;;;;;23.88;13.70;;;9.00;99.90;;;;;;6342331;22;20464;-86
2022/11/11 02:52:30;;;;;;;25.98;13.48;;;8.80;99.90;;;;;;6370811;22;20461;-85
2022/11/11 02:55:47;;;;;;;28.52;13.48;;;9.10;99.90;;;;;;6339902;22;20020;-85
2022/11/11 02:58:34;;;;;;;25.70;13.25;;;9.10;99.90;;;;;;6370766;22;20018;-85
2022/11/11 03:01:03;;;;;;;27.40;13.45;;;10.00;99.90;;;;;;6346165;22;20021;-85
2022/11/11 03:03:28;;;;;;;27.08;13.82;;;9.10;99.90;;;;;;6341692;22;20340;-86
2022/11/11 03:05:54;;;;;;;30.42;14.25;;;8.80;99.90;;;;;;6372332;22;20076;-85
2022/11/11 03:08:39;;;;;;;27.98;13.73;;;10.50;99.90;;;;;;6343944;22;20337;-85
2022/11/11 03:11:13;;;;;;;28.02;14.93;;;9.30;99.90;;;;;;6370528;22;20010;-86
2022/11/11 03:13:44;;;;;;;26.98;13.73;;;9.40;99.90;;;;;;6343271;22;20022;-86
2022/11/11 03:19:25;;;;;;;26.77;14.70;;;8.70;99.90;;;;;;6370869;22;20075;-85
2022/11/11 03:22:02;;;;;;;26.08;14.50;;;8.90;99.90;;;;;;6342666;22;20465;-86
2022/11/11 03:27:15;;;;;;;21.95;13.15;;;9.20;99.90;;;;;;6370760;22;20048;-85
2022/11/11 03:29:41;;;;;;;26.58;14.38;;;9.50;99.90;;;;;;6371309;22;20453;-85
2022/11/11 03:32:08;;;;;;;26.58;14.75;;;9.60;99.90;;;;;;6344444;22;20093;-85
2022/11/11 03:34:45;;;;;;;31.10;15.77;;;9.80;99.90;;;;;;6316231;22;20071;-86
2022/11/11 03:40:05;;;;;;;31.08;15.27;;;9.00;99.90;;;;;;6370447;22;20030;-86
2022/11/11 03:42:42;;;;;;;32.92;14.80;;;9.50;99.90;;;;;;6342291;22;20401;-85
2022/11/11 03:45:17;;;;;;;31.17;15.88;;;9.70;99.90;;;;;;6341603;22;20014;-85
2022/11/11 03:47:48;;;;;;;29.75;15.18;;;9.20;99.90;;;;;;6369633;22;20072;-85
2022/11/11 03:50:21;;;;;;;29.90;15.65;;;11.10;99.90;;;;;;6338558;22;20039;-85
2022/11/11 03:52:59;;;;;;;30.33;15.37;;;11.30;99.90;;;;;;6341740;22;20511;-86
2022/11/11 03:55:31;;;;;;;32.95;15.93;;;10.70;99.90;;;;;;6342229;22;20319;-86
2022/11/11 03:58:12;;;;;;;33.00;16.83;;;8.80;99.90;;;;;;6370237;22;20014;-86
2022/11/11 04:00:49;;;;;;;28.50;15.55;;;9.90;99.90;;;;;;6341387;22;20014;-86
2022/11/11 04:16:20;;;;;;;31.58;15.73;;;11.20;99.90;;;;;;6342477;22;20498;-85
2022/11/11 04:26:58;;;;;;;30.42;16.02;;;9.70;99.90;;;;;;6368990;22;20057;-85
2022/11/11 04:29:42;;;;;;;32.35;16.73;;;9.60;99.90;;;;;;6340542;22;20017;-86
2022/11/11 04:32:34;;;;;;;33.00;16.55;;;10.10;99.90;;;;;;6342030;22;20374;-85
2022/11/11 04:35:02;;;;;;;31.38;16.77;;;10.10;99.90;;;;;;6370869;22;20131;-85
2022/11/11 04:41:02;;;;;;;28.98;15.40;;;9.80;99.90;;;;;;6370421;22;20405;-86
2022/11/11 04:47:04;;;;;;;28.98;16.77;;;9.90;99.90;;;;;;6342535;22;20019;-86
2022/11/11 04:49:36;;;;;;;32.63;16.80;;;9.90;99.90;;;;;;6341072;22;20059;-85
2022/11/11 04:58:13;;;;;;;29.25;16.02;;;9.80;99.90;;;;;;6398554;22;20029;-86
2022/11/11 05:00:54;;;;;;;29.88;15.98;;;9.30;99.90;;;;;;6347292;22;20041;-86
2022/11/11 05:03:29;;;;;;;29.48;16.60;;;9.90;99.90;;;;;;6344128;22;20069;-85
2022/11/11 05:08:56;;;;;;;26.17;14.90;;;9.80;99.90;;;;;;6370108;22;20046;-85
2022/11/11 05:11:47;;;;;;;29.17;16.08;;;10.70;99.90;;;;;;6340947;22;20082;-85
2022/11/11 05:30:29;;;;;;;30.92;15.40;;;9.50;99.90;;;;;;6355038;22;20524;-85
2022/11/11 05:33:15;;;;;;;29.20;16.15;;;10.90;99.90;;;;;;6341891;22;20049;-85
2022/11/11 05:35:55;;;;;;;28.70;15.75;;;9.90;99.90;;;;;;6341448;22;20010;-85
2022/11/11 05:38:24;;;;;;;28.13;14.68;;;11.50;99.90;;;;;;6368862;22;20014;-85
2022/11/11 05:40:59;;;;;;;26.55;16.10;;;8.90;99.90;;;;;;6342153;22;20442;-84
2022/11/11 05:46:54;;;;;;;27.75;15.63;;;9.80;99.90;;;;;;6336733;22;20015;-85
2022/11/11 05:50:25;;;;;;;28.67;15.48;;;9.90;99.90;;;;;;6337668;22;20019;-86
2022/11/11 05:53:36;;;;;;;31.75;15.85;;;9.90;99.90;;;;;;6309217;22;20443;-86
2022/11/11 05:56:17;;;;;;;29.67;15.35;;;10.10;99.90;;;;;;6309566;22;20083;-86
2022/11/11 05:58:52;;;;;;;29.23;15.65;;;10.00;99.90;;;;;;6309658;22;20450;-85
2022/11/11 06:01:27;;;;;;;30.52;16.08;;;9.50;99.90;;;;;;6310795;22;20022;-85
2022/11/11 06:04:11;;;;;;;25.48;15.45;;;9.90;99.90;;;;;;6312145;22;20015;-86
2022/11/11 06:06:49;;;;;;;26.70;15.48;;;10.80;99.90;;;;;;6338522;22;20343;-85
2022/11/11 06:09:15;;;;;;;28.40;15.90;;;9.00;99.90;;;;;;6340688;22;20037;-85
2022/11/11 06:11:40;;;;;;;28.20;15.52;;;9.90;99.90;;;;;;6301011;22;20371;-85
2022/11/11 06:14:15;;;;;;;28.20;15.35;;;10.00;99.90;;;;;;6310396;22;20011;-85
2022/11/11 06:16:53;;;;;;;25.10;13.50;;;9.60;99.90;;;;;;6298637;22;20023;-85
2022/11/11 06:19:37;;;;;;;28.25;14.10;;;9.70;99.90;;;;;;6307634;22;20198;-85
2022/11/11 06:22:54;;;;;;;25.42;14.98;;;11.20;99.90;;;;;;6308111;22;20053;-86
2022/11/11 06:28:40;;;;;;;28.13;15.13;;;9.90;99.90;;;;;;6337889;22;20014;-86
2022/11/11 06:31:16;;;;;;;30.52;14.82;;;11.60;99.90;;;;;;6339100;22;20018;-86
2022/11/11 06:33:44;;;;;;;27.90;14.68;;;9.80;99.90;;;;;;6309880;22;20435;-85
2022/11/11 06:36:12;;;;;;;30.10;15.48;;;10.00;99.90;;;;;;6309637;22;20320;-85
2022/11/11 06:38:47;;;;;;;31.60;15.88;;;9.80;99.90;;;;;;6312892;22;20131;-85
2022/11/11 06:41:24;;;;;;;27.95;15.15;;;9.80;99.90;;;;;;6311341;22;20021;-86
2022/11/11 06:43:53;;;;;;;27.48;14.98;;;10.00;99.90;;;;;;6340869;22;20061;-86
2022/11/11 06:46:37;;;;;;;25.63;14.07;;;11.50;99.90;;;;;;6312168;22;20090;-86
2022/11/11 06:49:03;;;;;;;25.95;14.32;;;10.90;99.90;;;;;;6312157;22;20019;-85
2022/11/11 06:51:28;;;;;;;26.92;14.13;;;9.90;99.90;;;;;;6340058;22;20071;-85
2022/11/11 06:54:06;;;;;;;28.90;14.15;;;9.50;99.90;;;;;;6312297;22;20011;-85
2022/11/11 06:56:46;;;;;;;25.40;14.48;;;10.00;99.90;;;;;;6339101;22;20346;-85
2022/11/11 06:59:11;;;;;;;26.15;13.63;;;10.30;99.90;;;;;;6340243;22;20039;-86
2022/11/11 07:01:37;;;;;;;24.17;13.35;;;10.00;99.90;;;;;;6340770;22;20022;-85
2022/11/11 07:04:03;;;;;;;26.80;14.05;;;9.40;99.90;;;;;;6338974;22;20007;-85
2022/11/11 07:06:28;;;;;;;28.42;14.70;;;10.00;99.90;;;;;;6313780;22;20072;-86
2022/11/11 07:09:00;;;;;;;25.02;14.38;;;9.50;99.90;;;;;;6311881;22;20018;-85
2022/11/11 07:11:26;;;;;;;25.30;13.00;;;9.70;99.90;;;;;;6312028;22;20018;-85
2022/11/11 07:14:00;;;;;;;26.15;13.98;;;9.40;99.90;;;;;;6312103;22;20014;-85
2022/11/11 07:16:32;;;;;;;24.35;13.75;;;11.40;99.90;;;;;;6338522;22;20089;-85
2022/11/11 07:19:04;;;;;;;28.73;15.00;;;10.30;99.90;;;;;;6311887;22;20316;-86
2022/11/11 07:21:32;;;;;;;28.40;13.80;;;10.10;99.90;;;;;;6339852;22;20088;-86
2022/11/11 07:24:38;;;;;;;23.98;13.13;;;11.20;99.90;;;;;;6311859;22;20010;-87
2022/11/11 07:27:04;;;;;;;26.80;13.60;;;10.00;99.90;;;;;;6312095;22;20014;-84
2022/11/11 07:29:30;;;;;;;26.95;13.73;;;9.50;99.90;;;;;;6311966;22;20500;-85
2022/11/11 07:32:04;;;;;;;26.05;13.73;;;9.90;99.90;;;;;;6311506;22;20015;-86
2022/11/11 07:34:30;;;;;;;24.10;12.73;;;10.00;99.90;;;;;;6310483;22;20331;-85
2022/11/11 07:36:56;;;;;;;26.25;13.75;;;10.60;99.90;;;;;;6311885;22;20102;-85
2022/11/11 07:39:30;;;;;;;23.67;13.57;;;9.40;99.90;;;;;;6338459;22;20068;-85
2022/11/11 07:42:05;;;;;;;25.17;13.35;;;9.10;99.90;;;;;;6340349;22;20015;-85
2022/11/11 07:44:37;;;;;;;24.00;13.05;;;10.20;99.90;;;;;;6340956;22;20011;-83
2022/11/11 07:47:03;;;;;;;24.60;13.98;;;9.60;99.90;;;;;;6316838;22;20046;-85
2022/11/11 07:49:32;;;;;;;26.83;13.60;;;10.00;99.90;;;;;;6312673;22;20396;-86
2022/11/11 07:52:10;;;;;;;25.55;14.15;;;10.00;99.90;;;;;;6312058;22;20015;-85
2022/11/11 07:54:53;;;;;;;25.23;12.55;;;10.00;99.90;;;;;;6335734;22;20010;-85
2022/11/11 07:57:19;;;;;;;25.52;14.63;;;10.10;99.90;;;;;;6363314;22;20377;-86
2022/11/11 07:59:51;;;;;;;22.60;13.30;;;10.60;99.90;;;;;;6316213;22;20435;-86
2022/11/11 08:02:35;;;;;;;25.60;14.15;;;10.20;99.90;;;;;;6314150;22;20014;-85
2022/11/11 08:05:00;;;;;;;;;;;9.80;99.90;;;;;;6312778;22;20381;-85
2022/11/11 08:07:37;;;;;;;26.75;13.68;;;9.70;99.90;;;;;;6338838;22;19921;-86
2022/11/11 08:10:03;;;;;;;31.08;13.75;;;10.70;99.90;;;;;;6312156;22;20023;-84
2022/11/11 08:15:42;;;;;;;25.63;14.73;;;9.40;99.90;;;;;;6311278;22;20058;-85
2022/11/11 08:18:08;;;;;;;28.23;13.80;;;10.00;99.90;;;;;;6311271;22;20011;-85
2022/11/11 08:20:37;;;;;;;27.03;14.17;;;9.10;99.90;;;;;;6310788;22;20021;-85
2022/11/11 08:23:20;;;;;;;27.30;14.43;;;10.10;99.90;;;;;;6339733;22;20014;-85
2022/11/11 08:25:49;;;;;;;27.43;15.07;;;10.20;99.90;;;;;;6312479;22;20372;-84
2022/11/11 08:28:20;;;;;;;26.23;14.57;;;10.40;99.90;;;;;;6311157;22;20049;-84
2022/11/11 08:31:00;;;;;;;26.17;14.27;;;10.00;99.90;;;;;;6311306;22;20015;-84
2022/11/11 08:33:26;;;;;;;29.13;13.73;;;9.80;99.90;;;;;;6310155;22;20488;-84
2022/11/11 08:36:11;;;;;;;25.47;14.73;;;10.00;99.90;;;;;;6311108;22;20022;-84
2022/11/11 08:38:38;;;;;;;26.77;14.37;;;10.00;99.90;;;;;;6310435;22;20014;-84
2022/11/11 08:41:12;;;;;;;27.20;14.00;;;10.10;99.90;;;;;;6310034;22;20011;-85
2022/11/11 08:43:54;;;;;;;26.37;14.43;;;10.10;99.90;;;;;;6310795;22;20018;-84
2022/11/11 08:46:23;;;;;;;26.20;13.98;;;9.90;99.90;;;;;;6310381;22;20343;-84
2022/11/11 08:48:55;;;;;;;23.63;13.93;;;10.50;99.90;;;;;;6310036;22;20326;-84
2022/11/11 08:51:27;;;;;;;23.07;13.67;;;10.60;99.90;;;;;;6309542;22;20041;-84
2022/11/11 08:53:55;;;;;;;24.73;13.18;;;11.50;99.90;;;;;;6338598;22;20014;-84
2022/11/11 08:56:36;;;;;;;22.60;13.23;;;11.80;99.90;;;;;;6308537;22;20019;-85
2022/11/11 08:59:11;;;;;;;30.88;13.18;;;9.80;99.90;;;;;;6310399;22;20090;-84
2022/11/11 09:01:46;;;;;;;23.90;13.57;;;9.80;99.90;;;;;;6308949;22;20018;-85
2022/11/11 09:04:24;;;;;;;25.38;13.57;;;11.50;99.90;;;;;;6308553;22;20054;-85
2022/11/11 09:06:58;;;;;;;27.48;13.93;;;9.20;99.90;;;;;;6310632;22;20094;-85
2022/11/11 09:09:42;;;;;;;27.58;13.65;;;10.00;99.90;;;;;;6309419;22;20072;-83
2022/11/11 09:12:20;;;;;;;25.95;14.98;;;9.50;99.90;;;;;;6339029;22;20019;-83
2022/11/11 09:15:04;;;;;;;27.17;14.48;;;9.50;99.90;;;;;;6310441;22;20017;-84
2022/11/11 09:17:48;;;;;;;24.67;14.48;;;10.20;99.90;;;;;;6309466;22;20052;-83
2022/11/11 09:20:17;;;;;;;;;;;11.50;99.90;;;;;;6310158;22;20101;-84
2022/11/11 09:22:52;;;;;;;26.30;15.35;;;10.20;99.90;;;;;;6310610;22;19910;-84
2022/11/11 09:25:43;;;;;;;28.80;15.15;;;10.20;99.90;;;;;;6306083;22;20518;-84
2022/11/11 09:28:10;;;;;;;30.55;15.90;;;10.20;99.90;;;;;;6306620;22;20026;-83
2022/11/11 09:31:01;;;;;;;35.55;16.08;;;10.20;99.90;;;;;;6255515;22;20023;-82
2022/11/11 09:33:28;;;;;;;27.13;15.43;;;10.50;99.90;;;;;;6248639;22;20043;-83
2022/11/11 09:35:53;;;;;;;32.47;15.65;;;11.20;99.90;;;;;;6276338;22;20067;-83
2022/11/11 09:38:34;;;;;;;33.05;15.95;;;11.50;99.90;;;;;;6247272;22;20015;-84
2022/11/11 09:41:33;;;;;;;29.38;16.60;;;10.30;99.90;;;;;;6276193;22;20112;-83
2022/11/11 09:44:26;;;;;;;36.88;17.75;;;10.40;99.90;;;;;;6247742;22;20020;-83
2022/11/11 09:47:28;;;;;;;26.98;15.93;;;10.40;99.90;;;;;;6248985;22;20016;-84
2022/11/11 09:49:57;;;;;;;27.30;15.52;;;10.40;99.90;;;;;;6247734;22;20019;-83
2022/11/11 09:53:00;;;;;;;27.08;15.05;;;12.00;99.90;;;;;;6247233;22;20015;-85
2022/11/11 09:55:39;;;;;;;29.52;15.95;;;10.40;99.90;;;;;;6275954;22;20099;-85
2022/11/11 09:59:07;;;;;;;27.55;15.25;;;10.50;99.90;;;;;;6246425;22;20016;-86
2022/11/11 10:04:59;;;;;;;26.50;14.93;;;11.30;99.90;;;;;;6274329;22;20019;-86
2022/11/11 10:07:53;;;;;;;26.27;14.95;;;10.40;99.90;;;;;;6274282;22;20015;-86
2022/11/11 10:10:59;;;;;;;29.38;14.65;;;10.40;99.90;;;;;;6248154;22;20016;-85
2022/11/11 10:13:31;;;;;;;23.02;13.18;;;9.80;99.90;;;;;;6275347;22;20099;-86
2022/11/11 10:16:26;;;;;;;23.42;13.23;;;9.70;99.90;;;;;;6250763;22;20454;-86
2022/11/11 10:19:07;;;;;;;23.08;12.82;;;10.30;99.90;;;;;;6275486;22;20061;-86
2022/11/11 10:22:10;;;;;;;23.83;12.98;;;10.20;99.90;;;;;;6276858;22;20019;-86
2022/11/11 10:24:40;;;;;;;22.73;11.55;;;10.40;99.90;;;;;;6250863;22;20112;-84
2022/11/11 10:27:20;;;;;;;17.52;9.68;;;11.00;99.90;;;;;;6247967;22;20538;-84
2022/11/11 10:29:48;;;;;;;20.77;11.48;;;11.30;99.90;;;;;;6277246;22;20016;-84
2022/11/11 10:32:32;;;;;;;20.48;10.70;;;10.10;99.90;;;;;;6276679;22;20091;-85
2022/11/11 10:35:20;;;;;;;17.15;9.45;;;11.50;99.90;;;;;;6276752;22;20054;-84
2022/11/11 10:38:01;;;;;;;17.60;10.15;;;10.50;99.90;;;;;;6277199;22;20022;-84
2022/11/11 10:41:04;;;;;;;17.52;9.70;;;12.10;99.90;;;;;;6273253;22;20026;-86
2022/11/11 10:43:34;;;;;;;17.55;10.25;;;12.40;99.90;;;;;;6203388;22;20022;-84
2022/11/11 10:46:19;;;;;;;17.38;9.82;;;10.70;99.90;;;;;;6274408;22;20348;-85
2022/11/11 10:49:21;;;;;;;17.42;9.80;;;12.70;99.90;;;;;;6273675;22;20016;-85
2022/11/11 10:52:56;;;;;;;19.88;10.55;;;11.00;99.90;;;;;;6280762;22;20024;-86
2022/11/11 10:55:39;;;;;;;18.75;10.27;;;11.60;99.90;;;;;;6148343;23;20353;-85
2022/11/11 10:58:21;;;;;;;17.03;10.10;;;11.60;99.90;;;;;;6154150;23;20390;-84
2022/11/11 11:00:53;;;;;;;16.38;9.88;;;13.10;99.90;;;;;;6253377;22;20046;-84
2022/11/11 11:03:32;;;;;;;16.58;9.85;;;11.70;99.90;;;;;;6274877;22;20027;-85
2022/11/11 11:06:24;;;;;;;17.17;10.15;;;11.80;99.90;;;;;;6277369;22;20064;-85
2022/11/11 11:08:58;;;;;;;17.58;9.85;;;12.30;99.90;;;;;;6276131;22;20090;-85
2022/11/11 11:11:37;;;;;;;16.65;9.52;;;12.40;99.90;;;;;;6275733;22;20027;-84
2022/11/11 11:14:11;;;;;;;17.33;9.43;;;12.30;99.90;;;;;;6275812;22;20070;-85
2022/11/11 11:16:47;;;;;;;16.63;9.50;;;12.50;99.90;;;;;;6274798;22;20039;-85
2022/11/11 11:19:24;;;;;;;15.52;9.02;;;13.40;99.90;;;;;;6273929;22;20019;-85
2022/11/11 11:21:55;;;;;;;14.70;8.80;;;14.00;99.90;;;;;;6274425;22;20463;-84
2022/11/11 11:24:26;;;;;;;16.33;8.65;;;12.70;99.90;;;;;;6273457;22;20012;-84
2022/11/11 11:27:00;;;;;;;14.90;8.60;;;13.80;99.90;;;;;;6275074;22;20045;-84
2022/11/11 11:29:32;;;;;;;15.98;9.00;;;13.50;99.90;;;;;;6273244;22;20375;-84
2022/11/11 11:32:32;;;;;;;15.30;8.35;;;12.60;99.90;;;;;;6276874;22;20065;-84
2022/11/11 11:35:07;;;;;;;14.48;8.05;;;12.30;99.90;;;;;;6275954;22;20452;-84
2022/11/11 11:37:50;;;;;;;14.93;8.15;;;12.50;99.90;;;;;;6275588;22;20030;-84
2022/11/11 11:40:21;;;;;;;16.43;8.63;;;13.60;99.90;;;;;;6274456;22;20073;-84
2022/11/11 11:43:02;;;;;;;17.25;9.23;;;12.70;99.90;;;;;;6275172;22;20012;-84
2022/11/11 11:45:37;;;;;;;14.75;8.25;;;13.90;99.90;;;;;;6271572;22;20479;-85
2022/11/11 11:49:06;;;;;;;14.60;8.07;;;12.50;99.90;;;;;;6274587;22;20020;-85
2022/11/11 11:52:31;;;;;;;15.60;8.40;;;12.50;99.90;;;;;;6273592;22;20016;-85
2022/11/11 11:55:56;;;;;;;16.83;7.88;;;12.80;99.90;;;;;;6274444;22;20020;-86
2022/11/11 11:59:01;;;;;;;17.38;8.18;;;12.80;99.90;;;;;;6068810;23;20101;-86
2022/11/11 12:02:04;;;;;;;13.73;7.10;;;12.80;99.90;;;;;;6070122;23;20047;-86
2022/11/11 12:05:04;;;;;;;15.27;7.82;;;12.70;99.90;;;;;;6069226;23;20098;-86
2022/11/11 12:08:06;;;;;;;15.70;8.20;;;12.60;99.90;;;;;;6069992;23;20467;-86
2022/11/11 12:11:25;;;;;;;14.80;7.65;;;12.80;99.90;;;;;;6276948;22;20074;-87
2022/11/11 12:14:35;;;;;;;16.27;8.05;;;12.90;99.90;;;;;;6158165;23;20512;-86
2022/11/11 12:17:36;;;;;;;13.43;7.35;;;12.80;99.90;;;;;;6276445;22;20011;-86
2022/11/11 12:20:45;;;;;;;13.60;7.43;;;12.80;99.90;;;;;;6274262;22;20105;-86
2022/11/11 12:23:48;;;;;;;14.82;8.30;;;12.60;99.90;;;;;;6274320;22;20024;-87
2022/11/11 12:26:41;;;;;;;17.15;7.68;;;12.70;99.90;;;;;;6273718;22;20045;-87
2022/11/11 12:29:44;;;;;;;15.48;7.10;;;12.60;99.90;;;;;;6274647;22;20055;-86
2022/11/11 12:32:55;;;;;;;17.50;7.63;;;14.00;99.90;;;;;;6274036;22;20316;-87
2022/11/11 12:35:39;;;;;;;16.52;7.32;;;12.70;99.90;;;;;;6273472;22;20103;-84
2022/11/11 12:38:17;;;;;;;;;;;12.80;99.90;;;;;;6275840;22;20065;-84
2022/11/11 12:41:31;;;;;;;13.82;7.10;;;12.90;99.90;;;;;;6274147;22;19965;-84
2022/11/11 12:44:13;;;;;;;14.70;7.05;;;13.10;99.90;;;;;;6277255;22;20012;-82
2022/11/11 12:47:30;;;;;;;13.82;7.35;;;13.70;99.90;;;;;;6248408;22;20024;-84
2022/11/11 12:50:33;;;;;;;14.60;6.75;;;13.10;99.90;;;;;;6248399;22;20465;-84
2022/11/11 12:53:23;;;;;;;14.63;6.70;;;13.10;99.90;;;;;;6245154;22;20015;-84
2022/11/11 12:56:31;;;;;;;13.27;6.75;;;13.20;99.90;;;;;;6245021;22;20020;-85
2022/11/11 12:59:37;;;;;;;18.60;7.72;;;14.50;99.90;;;;;;6246323;22;20012;-85
2022/11/11 13:02:49;;;;;;;16.92;8.68;;;13.20;99.90;;;;;;6275181;22;20018;-85
2022/11/11 13:06:01;;;;;;;14.05;6.75;;;13.20;99.90;;;;;;6248071;22;20023;-85
2022/11/11 13:08:48;;;;;;;12.23;5.85;;;13.20;99.90;;;;;;6275225;22;20094;-85
2022/11/11 13:11:46;;;;;;;43.92;11.85;;;13.30;99.90;;;;;;6248180;22;20363;-85
2022/11/11 13:14:40;;;;;;;13.98;7.07;;;13.30;99.90;;;;;;6274256;22;20094;-85
2022/11/11 13:17:18;;;;;;;12.15;5.93;;;13.00;99.90;;;;;;6249070;22;20468;-85
2022/11/11 13:20:12;;;;;;;21.67;10.90;;;13.50;99.90;;;;;;6248932;22;20352;-85
2022/11/11 13:22:48;;;;;;;14.38;6.55;;;13.50;99.90;;;;;;6248505;22;20066;-85
2022/11/11 13:25:23;;;;;;;14.98;6.55;;;14.90;99.90;;;;;;6275952;22;20050;-85
2022/11/11 13:27:59;;;;;;;14.63;5.80;;;13.40;99.90;;;;;;6248966;22;20023;-85
2022/11/11 13:30:49;;;;;;;14.25;6.03;;;13.80;99.90;;;;;;6247353;22;20055;-85
2022/11/11 13:33:22;;;;;;;38.40;18.98;;;13.40;99.90;;;;;;6275597;22;20087;-85
2022/11/11 13:36:00;;;;;;;11.18;5.30;;;13.90;99.90;;;;;;6271417;22;20447;-85
2022/11/11 13:38:44;;;;;;;15.73;7.35;;;14.70;99.90;;;;;;6248599;22;20020;-85
2022/11/11 13:41:19;;;;;;;33.67;18.98;;;14.60;99.90;;;;;;6249221;22;20054;-85
2022/11/11 13:43:51;;;;;;;24.85;9.00;;;13.30;99.90;;;;;;6248071;22;20026;-85
2022/11/11 13:46:40;;;;;;;15.43;7.50;;;13.20;99.90;;;;;;6253844;22;20089;-85
2022/11/11 13:49:45;;;;;;;14.55;6.20;;;13.10;99.90;;;;;;6288534;22;20059;-85
2022/11/11 13:52:57;;;;;;;12.98;5.82;;;13.10;99.90;;;;;;6279250;22;20094;-85
2022/11/11 13:55:42;;;;;;;30.33;16.67;;;12.60;99.90;;;;;;6157489;23;20017;-85
2022/11/11 13:58:46;;;;;;;16.05;7.43;;;12.90;99.90;;;;;;6271077;22;20399;-86
2022/11/11 14:01:34;;;;;;;18.90;8.52;;;14.00;99.90;;;;;;6275817;22;20121;-85
2022/11/11 14:04:13;;;;;;;38.00;19.77;;;12.70;99.90;;;;;;6273184;22;20016;-86
2022/11/11 14:06:52;;;;;;;37.63;19.33;;;12.80;99.90;;;;;;6273965;22;20020;-85
2022/11/11 14:10:00;;;;;;;14.88;7.20;;;14.00;99.90;;;;;;6273637;22;20015;-85
2022/11/11 14:12:40;;;;;;;16.83;6.70;;;12.70;99.90;;;;;;6276732;22;20035;-85
2022/11/11 14:15:42;;;;;;;13.93;6.07;;;12.80;99.90;;;;;;6274646;22;20016;-86
2022/11/11 14:18:22;;;;;;;15.27;6.55;;;12.90;99.90;;;;;;6275118;22;20352;-85
2022/11/11 14:20:52;;;;;;;13.88;6.45;;;12.80;99.90;;;;;;6278499;22;20106;-84
2022/11/11 14:23:36;;;;;;;12.95;6.07;;;13.30;99.90;;;;;;6275854;22;20027;-84
2022/11/11 14:26:22;;;;;;;13.52;5.93;;;13.40;99.90;;;;;;6275379;22;20105;-85
2022/11/11 14:29:22;;;;;;;14.18;6.75;;;13.40;99.90;;;;;;6273715;22;20020;-85
2022/11/11 14:32:12;;;;;;;24.80;13.60;;;12.70;99.90;;;;;;6273878;22;20020;-86
2022/11/11 14:35:27;;;;;;;;;;;;;;;;;;;;;
2022/11/11 14:38:57;;;;;;;21.48;11.70;;;12.50;99.90;;;;;;6229888;22;20082;-84
2022/11/11 14:41:51;;;;;;;17.38;8.30;;;12.50;99.90;;;;;;6275193;22;20027;-84
2022/11/11 14:44:35;;;;;;;;;;;12.40;99.90;;;;;;6274344;22;20091;-84
2022/11/11 14:47:55;;;;;;;24.20;11.73;;;12.40;99.90;;;;;;6273004;22;20276;-84
2022/11/11 14:51:12;;;;;;;21.20;11.00;;;13.00;99.90;;;;;;6273203;22;20026;-84
2022/11/11 14:53:40;;;;;;;16.48;6.82;;;12.20;99.90;;;;;;6272741;22;20024;-85
2022/11/11 14:56:17;;;;;;;16.45;7.15;;;13.60;99.90;;;;;;6274782;22;20019;-84
2022/11/11 14:59:03;;;;;;;39.65;20.20;;;11.40;99.90;;;;;;6276370;22;20016;-84
2022/11/11 15:01:35;;;;;;;12.93;5.78;;;13.40;99.90;;;;;;6274920;22;20019;-84
2022/11/11 15:04:08;;;;;;;16.20;7.50;;;12.80;99.90;;;;;;6277147;22;20026;-84
2022/11/11 15:07:13;;;;;;;12.60;5.85;;;12.00;99.90;;;;;;6277496;22;20022;-84
2022/11/11 15:09:48;;;;;;;14.23;6.50;;;11.80;99.90;;;;;;6183647;23;20017;-84
2022/11/11 15:12:50;;;;;;;17.50;7.25;;;11.90;99.90;;;;;;6158201;23;20322;-84
2022/11/11 15:15:56;;;;;;;16.52;7.10;;;11.60;99.90;;;;;;6157094;23;20573;-84
2022/11/11 15:18:59;;;;;;;17.83;6.80;;;12.60;99.90;;;;;;6195246;22;20087;-84
2022/11/11 15:22:06;;;;;;;15.68;7.53;;;11.50;99.90;;;;;;6273642;22;20022;-84
2022/11/11 15:25:04;;;;;;;12.57;7.05;;;11.30;99.90;;;;;;6297177;22;20048;-82
2022/11/11 15:31:42;;;;;;;15.05;7.97;;;10.40;99.90;;;;;;6369675;22;20057;-83
2022/11/11 15:34:34;;;;;;;16.88;6.60;;;11.10;99.90;;;;;;6370288;22;20019;-83
2022/11/11 15:37:15;;;;;;;13.88;6.70;;;11.10;99.90;;;;;;6370136;22;20011;-83
2022/11/11 15:40:19;;;;;;;14.43;6.53;;;10.80;99.90;;;;;;6317267;22;20384;-83
2022/11/11 15:42:53;;;;;;;13.20;6.18;;;10.70;99.90;;;;;;6341727;22;20014;-83
2022/11/11 15:48:41;;;;;;;13.43;6.35;;;10.60;99.90;;;;;;6370403;22;20047;-84
2022/11/11 15:51:38;;;;;;;14.77;7.28;;;10.60;99.90;;;;;;6370372;22;20018;-84
2022/11/11 15:54:25;;;;;;;15.30;6.82;;;10.50;99.90;;;;;;6370129;22;20018;-84
2022/11/11 15:57:34;;;;;;;14.45;6.68;;;9.60;99.90;;;;;;6306302;22;20105;-83
2022/11/11 16:00:03;;;;;;;14.25;6.93;;;10.30;99.90;;;;;;6342295;22;20075;-84
2022/11/11 16:02:40;;;;;;;15.93;6.78;;;10.10;99.90;;;;;;6369850;22;20023;-85